KLM550 HKJK-HRYR
Flight info
| Callsign | KLM550 |
|---|---|
| Flight time | 1h 3m |
| Altitude | 32000 |
| Route | APLOG2B APLOG UL442 BOSAD BOSAD1B |
| Aircraft | B77L/H-SDE1E2E3FGHIJ2J3J4J5M1RWXY/LB1D1 |
Departure
| Time | 2026-04-22 17:28 |
|---|---|
| Airport | Jomo Kenyatta International Airport (HKJK) |
Arrival
| Time | 2026-04-22 18:31 |
|---|---|
| Airport | Kigali International Airport (HRYR) |
| Time | Latitude | Longitude | Altitude | Speed | Heading |
|---|---|---|---|---|---|
| 2026-04-22 17:12 | -1.33251 | 36.91621 | 5340 ft | 0 kts | 147° |
| 2026-04-22 17:21 | -1.33248 | 36.91619 | 5341 ft | 2 kts | 147° |
| 2026-04-22 17:21 | -1.33221 | 36.91597 | 5341 ft | 3 kts | 123° |
| 2026-04-22 17:22 | -1.33212 | 36.91567 | 5341 ft | 0 kts | 90° |
| 2026-04-22 17:23 | -1.33191 | 36.91586 | 5341 ft | 6 kts | 33° |
| 2026-04-22 17:23 | -1.33146 | 36.91615 | 5341 ft | 9 kts | 33° |
| 2026-04-22 17:24 | -1.33108 | 36.91643 | 5341 ft | 7 kts | 38° |
| 2026-04-22 17:24 | -1.33085 | 36.91665 | 5341 ft | 2 kts | 49° |
| 2026-04-22 17:24 | -1.33071 | 36.91681 | 5341 ft | 4 kts | 51° |
| 2026-04-22 17:24 | -1.33054 | 36.91704 | 5341 ft | 5 kts | 53° |
| 2026-04-22 17:25 | -1.33030 | 36.91738 | 5341 ft | 9 kts | 54° |
| 2026-04-22 17:25 | -1.32996 | 36.91785 | 5341 ft | 9 kts | 54° |
| 2026-04-22 17:25 | -1.32970 | 36.91808 | 5341 ft | 3 kts | 1° |
| 2026-04-22 17:25 | -1.32931 | 36.91794 | 5341 ft | 8 kts | 325° |
| 2026-04-22 17:26 | -1.32894 | 36.91766 | 5341 ft | 4 kts | 322° |
| 2026-04-22 17:26 | -1.32873 | 36.91750 | 5341 ft | 6 kts | 322° |
| 2026-04-22 17:26 | -1.32825 | 36.91716 | 5341 ft | 12 kts | 324° |
| 2026-04-22 17:26 | -1.32758 | 36.91672 | 5341 ft | 8 kts | 350° |
| 2026-04-22 17:27 | -1.32725 | 36.91688 | 5341 ft | 6 kts | 51° |
| 2026-04-22 17:27 | -1.32657 | 36.91777 | 5341 ft | 37 kts | 54° |
| 2026-04-22 17:27 | -1.32323 | 36.92236 | 5341 ft | 127 kts | 52° |
| 2026-04-22 17:27 | -1.31634 | 36.93171 | 5555 ft | 189 kts | 54° |
| 2026-04-22 17:28 | -1.30874 | 36.94239 | 6704 ft | 193 kts | 55° |
| 2026-04-22 17:28 | -1.30070 | 36.95340 | 7793 ft | 201 kts | 54° |
| 2026-04-22 17:28 | -1.29143 | 36.96474 | 8231 ft | 224 kts | 52° |
| 2026-04-22 17:28 | -1.28116 | 36.97760 | 8529 ft | 250 kts | 53° |
| 2026-04-22 17:29 | -1.26979 | 36.99205 | 8818 ft | 278 kts | 53° |
| 2026-04-22 17:29 | -1.25751 | 37.00767 | 9523 ft | 289 kts | 53° |
| 2026-04-22 17:29 | -1.24519 | 37.02334 | 10456 ft | 293 kts | 51° |
| 2026-04-22 17:29 | -1.22919 | 37.03708 | 11075 ft | 311 kts | 30° |
| 2026-04-22 17:30 | -1.20840 | 37.04364 | 11622 ft | 330 kts | 8° |
| 2026-04-22 17:30 | -1.18485 | 37.04189 | 12116 ft | 351 kts | 347° |
| 2026-04-22 17:30 | -1.16219 | 37.03134 | 12587 ft | 372 kts | 327° |
| 2026-04-22 17:30 | -1.14335 | 37.01272 | 13113 ft | 390 kts | 307° |
| 2026-04-22 17:31 | -1.13116 | 36.98817 | 13715 ft | 403 kts | 288° |
| 2026-04-22 17:31 | -1.12732 | 36.96058 | 14475 ft | 411 kts | 270° |
| 2026-04-22 17:31 | -1.13201 | 36.93229 | 15256 ft | 417 kts | 254° |
| 2026-04-22 17:31 | -1.14240 | 36.90524 | 16040 ft | 421 kts | 246° |
| 2026-04-22 17:32 | -1.15485 | 36.87846 | 16794 ft | 425 kts | 244° |
| 2026-04-22 17:32 | -1.16794 | 36.85188 | 17575 ft | 428 kts | 244° |
| 2026-04-22 17:32 | -1.18088 | 36.82482 | 18226 ft | 434 kts | 244° |
| 2026-04-22 17:32 | -1.19350 | 36.79730 | 18889 ft | 439 kts | 246° |
| 2026-04-22 17:33 | -1.20122 | 36.77843 | 19274 ft | 443 kts | 249° |
| 2026-04-22 17:33 | -1.21300 | 36.73869 | 20080 ft | 450 kts | 257° |
| 2026-04-22 17:33 | -1.21935 | 36.70838 | 20646 ft | 455 kts | 258° |
| 2026-04-22 17:33 | -1.22529 | 36.67713 | 21204 ft | 460 kts | 259° |
| 2026-04-22 17:34 | -1.23080 | 36.64558 | 21783 ft | 463 kts | 260° |
| 2026-04-22 17:34 | -1.23599 | 36.61367 | 22282 ft | 468 kts | 261° |
| 2026-04-22 17:34 | -1.24106 | 36.58133 | 22778 ft | 473 kts | 261° |
| 2026-04-22 17:34 | -1.24615 | 36.54878 | 23280 ft | 476 kts | 261° |
| 2026-04-22 17:35 | -1.25130 | 36.51594 | 23742 ft | 481 kts | 260° |
| 2026-04-22 17:35 | -1.25645 | 36.48319 | 24177 ft | 485 kts | 260° |
| 2026-04-22 17:35 | -1.26178 | 36.44947 | 24721 ft | 486 kts | 260° |
| 2026-04-22 17:35 | -1.26696 | 36.41642 | 25224 ft | 488 kts | 260° |
| 2026-04-22 17:36 | -1.27227 | 36.38275 | 25737 ft | 490 kts | 260° |
| 2026-04-22 17:36 | -1.27754 | 36.34917 | 26199 ft | 492 kts | 261° |
| 2026-04-22 17:36 | -1.28287 | 36.31533 | 26715 ft | 493 kts | 261° |
| 2026-04-22 17:36 | -1.28822 | 36.28132 | 27184 ft | 495 kts | 261° |
| 2026-04-22 17:37 | -1.29350 | 36.24776 | 27658 ft | 496 kts | 261° |
| 2026-04-22 17:37 | -1.29892 | 36.21336 | 28107 ft | 498 kts | 261° |
| 2026-04-22 17:37 | -1.30420 | 36.17976 | 28535 ft | 500 kts | 261° |
| 2026-04-22 17:37 | -1.30963 | 36.14525 | 28951 ft | 502 kts | 261° |
| 2026-04-22 17:38 | -1.31504 | 36.11088 | 29378 ft | 504 kts | 261° |
| 2026-04-22 17:38 | -1.32060 | 36.07562 | 29819 ft | 505 kts | 261° |
| 2026-04-22 17:38 | -1.32602 | 36.04131 | 30232 ft | 506 kts | 261° |
| 2026-04-22 17:38 | -1.33147 | 36.00654 | 30604 ft | 509 kts | 261° |
| 2026-04-22 17:39 | -1.33698 | 35.97147 | 30848 ft | 513 kts | 261° |
| 2026-04-22 17:39 | -1.34255 | 35.93614 | 31184 ft | 515 kts | 261° |
| 2026-04-22 17:39 | -1.35369 | 35.86537 | 31978 ft | 515 kts | 261° |
| 2026-04-22 17:40 | -1.35921 | 35.83016 | 32450 ft | 514 kts | 261° |
| 2026-04-22 17:40 | -1.36476 | 35.79486 | 32911 ft | 513 kts | 261° |
| 2026-04-22 17:40 | -1.37028 | 35.75971 | 33368 ft | 512 kts | 261° |
| 2026-04-22 17:40 | -1.37578 | 35.72471 | 33851 ft | 510 kts | 261° |
| 2026-04-22 17:41 | -1.38123 | 35.69009 | 34270 ft | 510 kts | 261° |
| 2026-04-22 17:41 | -1.38681 | 35.65455 | 34768 ft | 508 kts | 261° |
| 2026-04-22 17:41 | -1.39215 | 35.62060 | 35251 ft | 507 kts | 261° |
| 2026-04-22 17:41 | -1.39761 | 35.58584 | 35718 ft | 505 kts | 261° |
| 2026-04-22 17:42 | -1.40305 | 35.55121 | 36075 ft | 505 kts | 261° |
| 2026-04-22 17:42 | -1.41392 | 35.48198 | 36104 ft | 503 kts | 261° |
| 2026-04-22 17:43 | -1.42473 | 35.41313 | 36096 ft | 503 kts | 261° |
| 2026-04-22 17:43 | -1.43557 | 35.34414 | 36093 ft | 503 kts | 261° |
| 2026-04-22 17:44 | -1.44635 | 35.27545 | 36087 ft | 503 kts | 261° |
| 2026-04-22 17:44 | -1.45722 | 35.20633 | 36081 ft | 503 kts | 261° |
| 2026-04-22 17:45 | -1.46807 | 35.13724 | 36076 ft | 504 kts | 261° |
| 2026-04-22 17:45 | -1.47897 | 35.06799 | 36070 ft | 504 kts | 261° |
| 2026-04-22 17:46 | -1.48973 | 34.99921 | 36067 ft | 505 kts | 261° |
| 2026-04-22 17:46 | -1.50064 | 34.92977 | 36062 ft | 505 kts | 261° |
| 2026-04-22 17:47 | -1.50911 | 34.86053 | 36075 ft | 505 kts | 265° |
| 2026-04-22 17:47 | -1.51513 | 34.79024 | 36069 ft | 505 kts | 265° |
| 2026-04-22 17:48 | -1.52071 | 34.73208 | 36064 ft | 506 kts | 264° |
| 2026-04-22 17:48 | -1.52879 | 34.65019 | 36035 ft | 506 kts | 264° |
| 2026-04-22 17:49 | -1.53567 | 34.58060 | 36035 ft | 507 kts | 264° |
| 2026-04-22 17:49 | -1.54263 | 34.51040 | 36032 ft | 507 kts | 264° |
| 2026-04-22 17:50 | -1.54958 | 34.44017 | 36032 ft | 507 kts | 264° |
| 2026-04-22 17:50 | -1.55654 | 34.37005 | 36031 ft | 507 kts | 264° |
| 2026-04-22 17:51 | -1.56350 | 34.29979 | 36023 ft | 508 kts | 264° |
| 2026-04-22 17:51 | -1.57046 | 34.22956 | 36031 ft | 509 kts | 264° |
| 2026-04-22 17:52 | -1.57764 | 34.15925 | 36026 ft | 508 kts | 264° |
| 2026-04-22 17:52 | -1.58483 | 34.08887 | 36030 ft | 508 kts | 264° |
| 2026-04-22 17:53 | -1.59194 | 34.01865 | 36025 ft | 508 kts | 264° |
| 2026-04-22 17:53 | -1.59876 | 33.94879 | 36024 ft | 508 kts | 264° |
| 2026-04-22 17:54 | -1.60562 | 33.87853 | 36026 ft | 507 kts | 264° |
| 2026-04-22 17:54 | -1.61251 | 33.80842 | 36027 ft | 508 kts | 264° |
| 2026-04-22 17:55 | -1.61821 | 33.75002 | 36024 ft | 508 kts | 264° |
| 2026-04-22 17:55 | -1.62622 | 33.66796 | 36023 ft | 507 kts | 264° |
| 2026-04-22 17:56 | -1.63302 | 33.59825 | 36024 ft | 508 kts | 264° |
| 2026-04-22 17:56 | -1.63988 | 33.52800 | 36024 ft | 508 kts | 264° |
| 2026-04-22 17:57 | -1.64667 | 33.45790 | 36023 ft | 507 kts | 264° |
| 2026-04-22 17:57 | -1.65347 | 33.38768 | 36023 ft | 507 kts | 264° |
| 2026-04-22 17:58 | -1.66024 | 33.31762 | 36023 ft | 506 kts | 264° |
| 2026-04-22 17:58 | -1.66697 | 33.24797 | 36023 ft | 506 kts | 264° |
| 2026-04-22 17:59 | -1.67375 | 33.17799 | 36023 ft | 506 kts | 264° |
| 2026-04-22 17:59 | -1.68051 | 33.10806 | 36022 ft | 505 kts | 264° |
| 2026-04-22 18:00 | -1.68610 | 33.05020 | 36022 ft | 503 kts | 264° |
| 2026-04-22 18:00 | -1.69398 | 32.96874 | 36022 ft | 505 kts | 264° |
| 2026-04-22 18:01 | -1.70069 | 32.89938 | 36020 ft | 504 kts | 264° |
| 2026-04-22 18:01 | -1.70742 | 32.82973 | 36020 ft | 503 kts | 264° |
| 2026-04-22 18:02 | -1.71411 | 32.76024 | 36020 ft | 502 kts | 264° |
| 2026-04-22 18:02 | -1.72081 | 32.69077 | 36018 ft | 502 kts | 264° |
| 2026-04-22 18:03 | -1.72754 | 32.62136 | 36018 ft | 501 kts | 263° |
| 2026-04-22 18:03 | -1.73445 | 32.55233 | 36018 ft | 501 kts | 263° |
| 2026-04-22 18:04 | -1.74140 | 32.48302 | 36015 ft | 500 kts | 263° |
| 2026-04-22 18:04 | -1.74825 | 32.41431 | 36014 ft | 500 kts | 263° |
| 2026-04-22 18:05 | -1.75516 | 32.34527 | 36013 ft | 499 kts | 263° |
| 2026-04-22 18:05 | -1.76205 | 32.27628 | 36012 ft | 499 kts | 263° |
| 2026-04-22 18:06 | -1.76893 | 32.20758 | 36010 ft | 499 kts | 263° |
| 2026-04-22 18:06 | -1.77583 | 32.13867 | 36009 ft | 498 kts | 263° |
| 2026-04-22 18:07 | -1.78161 | 32.08082 | 36008 ft | 498 kts | 263° |
| 2026-04-22 18:07 | -1.78959 | 32.00079 | 36006 ft | 498 kts | 263° |
| 2026-04-22 18:08 | -1.79648 | 31.93174 | 36006 ft | 499 kts | 263° |
| 2026-04-22 18:08 | -1.80328 | 31.86338 | 36003 ft | 498 kts | 264° |
| 2026-04-22 18:09 | -1.81017 | 31.79441 | 36005 ft | 498 kts | 264° |
| 2026-04-22 18:09 | -1.81704 | 31.72538 | 36003 ft | 498 kts | 264° |
| 2026-04-22 18:10 | -1.82387 | 31.65691 | 36007 ft | 498 kts | 264° |
| 2026-04-22 18:10 | -1.83073 | 31.58807 | 36008 ft | 498 kts | 264° |
| 2026-04-22 18:11 | -1.83760 | 31.51914 | 35767 ft | 497 kts | 264° |
| 2026-04-22 18:11 | -1.84099 | 31.48493 | 35312 ft | 491 kts | 264° |
| 2026-04-22 18:11 | -1.84436 | 31.45114 | 34629 ft | 490 kts | 263° |
| 2026-04-22 18:11 | -1.84773 | 31.41715 | 33946 ft | 490 kts | 263° |
| 2026-04-22 18:12 | -1.85110 | 31.38321 | 33244 ft | 490 kts | 263° |
| 2026-04-22 18:12 | -1.85448 | 31.34929 | 32529 ft | 491 kts | 263° |
| 2026-04-22 18:12 | -1.85672 | 31.32681 | 32048 ft | 492 kts | 263° |
| 2026-04-22 18:12 | -1.86119 | 31.28181 | 31241 ft | 494 kts | 263° |
| 2026-04-22 18:13 | -1.86460 | 31.24743 | 30659 ft | 500 kts | 263° |
| 2026-04-22 18:13 | -1.86806 | 31.21262 | 30072 ft | 505 kts | 263° |
| 2026-04-22 18:13 | -1.87154 | 31.17764 | 29491 ft | 504 kts | 263° |
| 2026-04-22 18:13 | -1.87498 | 31.14293 | 28890 ft | 500 kts | 263° |
| 2026-04-22 18:14 | -1.87842 | 31.10844 | 28299 ft | 496 kts | 263° |
| 2026-04-22 18:14 | -1.88182 | 31.07424 | 27717 ft | 492 kts | 264° |
| 2026-04-22 18:14 | -1.88513 | 31.04085 | 27146 ft | 488 kts | 264° |
| 2026-04-22 18:14 | -1.88844 | 31.00732 | 26586 ft | 484 kts | 264° |
| 2026-04-22 18:15 | -1.89178 | 30.97387 | 26020 ft | 480 kts | 264° |
| 2026-04-22 18:15 | -1.89502 | 30.94095 | 25482 ft | 476 kts | 264° |
| 2026-04-22 18:15 | -1.89827 | 30.90815 | 24915 ft | 472 kts | 264° |
| 2026-04-22 18:15 | -1.90151 | 30.87556 | 24378 ft | 468 kts | 264° |
| 2026-04-22 18:16 | -1.90451 | 30.84332 | 23814 ft | 464 kts | 266° |
| 2026-04-22 18:16 | -1.90512 | 30.81116 | 23275 ft | 461 kts | 271° |
| 2026-04-22 18:16 | -1.90376 | 30.77936 | 22719 ft | 458 kts | 274° |
| 2026-04-22 18:16 | -1.90140 | 30.74805 | 22185 ft | 454 kts | 275° |
| 2026-04-22 18:17 | -1.89845 | 30.71675 | 21638 ft | 451 kts | 276° |
| 2026-04-22 18:17 | -1.89536 | 30.68565 | 21096 ft | 448 kts | 276° |
| 2026-04-22 18:17 | -1.89253 | 30.65480 | 20565 ft | 445 kts | 276° |
| 2026-04-22 18:17 | -1.88971 | 30.62407 | 20025 ft | 442 kts | 275° |
| 2026-04-22 18:18 | -1.88699 | 30.59352 | 19484 ft | 439 kts | 275° |
| 2026-04-22 18:18 | -1.88433 | 30.56360 | 18961 ft | 437 kts | 275° |
| 2026-04-22 18:18 | -1.88165 | 30.53350 | 18432 ft | 434 kts | 275° |
| 2026-04-22 18:18 | -1.87899 | 30.50368 | 17914 ft | 431 kts | 276° |
| 2026-04-22 18:19 | -1.87634 | 30.47370 | 17371 ft | 429 kts | 275° |
| 2026-04-22 18:19 | -1.87373 | 30.44407 | 16846 ft | 427 kts | 276° |
| 2026-04-22 18:19 | -1.87111 | 30.41467 | 16324 ft | 425 kts | 275° |
| 2026-04-22 18:19 | -1.86851 | 30.38535 | 15795 ft | 422 kts | 275° |
| 2026-04-22 18:20 | -1.86592 | 30.35619 | 15272 ft | 420 kts | 275° |
| 2026-04-22 18:20 | -1.86333 | 30.32724 | 14751 ft | 417 kts | 275° |
| 2026-04-22 18:20 | -1.86082 | 30.29889 | 14250 ft | 414 kts | 275° |
| 2026-04-22 18:20 | -1.85830 | 30.27034 | 13743 ft | 411 kts | 276° |
| 2026-04-22 18:21 | -1.85575 | 30.24191 | 13335 ft | 405 kts | 275° |
| 2026-04-22 18:21 | -1.85347 | 30.21616 | 13140 ft | 380 kts | 275° |
| 2026-04-22 18:21 | -1.85121 | 30.19061 | 12946 ft | 357 kts | 275° |
| 2026-04-22 18:21 | -1.84892 | 30.16657 | 12776 ft | 338 kts | 276° |
| 2026-04-22 18:22 | -1.84675 | 30.14380 | 12591 ft | 322 kts | 275° |
| 2026-04-22 18:22 | -1.84492 | 30.12174 | 12432 ft | 315 kts | 275° |
| 2026-04-22 18:22 | -1.84306 | 30.10009 | 12258 ft | 309 kts | 275° |
| 2026-04-22 18:22 | -1.84120 | 30.07892 | 12094 ft | 303 kts | 275° |
| 2026-04-22 18:23 | -1.83938 | 30.05815 | 11937 ft | 297 kts | 275° |
| 2026-04-22 18:23 | -1.83759 | 30.03794 | 11783 ft | 290 kts | 275° |
| 2026-04-22 18:23 | -1.83583 | 30.01831 | 11657 ft | 281 kts | 275° |
| 2026-04-22 18:24 | -1.83245 | 29.98037 | 11326 ft | 267 kts | 275° |
| 2026-04-22 18:24 | -1.83082 | 29.96211 | 11185 ft | 260 kts | 275° |
| 2026-04-22 18:24 | -1.83042 | 29.92679 | 10882 ft | 253 kts | 253° |
| 2026-04-22 18:25 | -1.83771 | 29.91096 | 10802 ft | 253 kts | 239° |
| 2026-04-22 18:25 | -1.84974 | 29.89771 | 10403 ft | 264 kts | 213° |
| 2026-04-22 18:25 | -1.86649 | 29.89147 | 10015 ft | 260 kts | 186° |
| 2026-04-22 18:26 | -1.90155 | 29.89258 | 9500 ft | 248 kts | 173° |
| 2026-04-22 18:26 | -1.91751 | 29.89790 | 9239 ft | 240 kts | 149° |
| 2026-04-22 18:26 | -1.92873 | 29.90948 | 9072 ft | 230 kts | 122° |
| 2026-04-22 18:26 | -1.93376 | 29.92435 | 8728 ft | 225 kts | 104° |
| 2026-04-22 18:27 | -1.93574 | 29.93980 | 8319 ft | 221 kts | 98° |
| 2026-04-22 18:27 | -1.93725 | 29.95467 | 8085 ft | 211 kts | 98° |
| 2026-04-22 18:27 | -1.93917 | 29.96904 | 7854 ft | 206 kts | 99° |
| 2026-04-22 18:27 | -1.94138 | 29.98295 | 7642 ft | 206 kts | 100° |
| 2026-04-22 18:28 | -1.94377 | 29.99705 | 7436 ft | 203 kts | 100° |
| 2026-04-22 18:28 | -1.94613 | 30.01084 | 7176 ft | 200 kts | 100° |
| 2026-04-22 18:28 | -1.94848 | 30.02435 | 6868 ft | 193 kts | 101° |
| 2026-04-22 18:28 | -1.95074 | 30.03727 | 6651 ft | 184 kts | 101° |
| 2026-04-22 18:29 | -1.95289 | 30.04956 | 6445 ft | 175 kts | 101° |
| 2026-04-22 18:29 | -1.95478 | 30.06125 | 6258 ft | 164 kts | 99° |
| 2026-04-22 18:29 | -1.95627 | 30.07247 | 6066 ft | 162 kts | 97° |
| 2026-04-22 18:29 | -1.95796 | 30.08341 | 5849 ft | 163 kts | 98° |
| 2026-04-22 18:30 | -1.95991 | 30.09449 | 5564 ft | 162 kts | 100° |
| 2026-04-22 18:30 | -1.96424 | 30.11652 | 5131 ft | 166 kts | 98° |
| 2026-04-22 18:30 | -1.96644 | 30.12771 | 4910 ft | 159 kts | 99° |
| 2026-04-22 18:31 | -1.96831 | 30.13728 | 4906 ft | 117 kts | 94° |
| 2026-04-22 18:31 | -1.96917 | 30.14274 | 4905 ft | 55 kts | 100° |
| 2026-04-22 18:31 | -1.96973 | 30.14593 | 4905 ft | 27 kts | 101° |
| 2026-04-22 18:31 | -1.97001 | 30.14743 | 4905 ft | 13 kts | 99° |
| 2026-04-22 18:32 | -1.97002 | 30.14754 | 4905 ft | 0 kts | 99° |
| 2026-04-22 18:33 | -1.33250 | 36.91621 | 5327 ft | 0 kts | 147° |